Time;durP1;ratioP1;P1;durP2;ratioP2;P2;SDS_P1;SDS_P2;PMS_P1;PMS_P2;Temp;Humidity;BMP_temperature;BMP_pressure;BME280_temperature;BME280_humidity;BME280_pressure;Samples;Min_cycle;Max_cycle;Signal;HPM_P1;HPM_P2
2023/10/25 00:00:17;;;;;;;;;;;17.60;93.70;;;;;;6068389;23;19980;-73
2023/10/25 00:02:43;;;;;;;;;;;17.30;93.40;;;;;;6067487;23;19914;-73
2023/10/25 00:05:08;;;;;;;;;;;17.50;93.70;;;;;;6068282;23;19953;-73
2023/10/25 00:07:34;;;;;;;;;;;17.30;93.40;;;;;;6068294;23;19952;-72
2023/10/25 00:10:01;;;;;;;;;;;17.40;94.00;;;;;;6067608;23;19902;-73
2023/10/25 00:12:26;;;;;;;;;;;17.50;93.60;;;;;;6067987;23;19916;-80
2023/10/25 00:14:52;;;;;;;;;;;17.30;93.50;;;;;;6067683;23;19901;-80
2023/10/25 00:17:18;;;;;;;;;;;17.40;93.50;;;;;;6067621;23;19902;-80
2023/10/25 00:19:43;;;;;;;;;;;17.40;93.50;;;;;;6067528;23;19960;-80
2023/10/25 00:22:11;;;;;;;;;;;;;;;;;;6068133;23;19902;-80
2023/10/25 00:24:37;;;;;;;;;;;17.40;92.80;;;;;;6068139;23;20210;-80
2023/10/25 00:27:03;;;;;;;;;;;17.50;93.50;;;;;;6067895;23;19936;-80
2023/10/25 00:29:29;;;;;;;;;;;17.30;93.30;;;;;;6068844;23;19908;-73
2023/10/25 00:31:55;;;;;;;;;;;17.40;93.40;;;;;;6042403;23;20333;-75
2023/10/25 00:34:21;;;;;;;;;;;17.40;93.60;;;;;;6067870;23;19966;-75
2023/10/25 00:36:47;;;;;;;;;;;17.50;93.40;;;;;;6067680;23;19905;-72
2023/10/25 00:39:13;;;;;;;;;;;17.30;93.40;;;;;;6067668;23;19902;-74
2023/10/25 00:41:38;;;;;;;;;;;17.40;93.50;;;;;;6067621;23;19981;-80
2023/10/25 00:44:04;;;;;;;;;;;17.50;93.50;;;;;;6042305;23;20282;-81
2023/10/25 00:46:30;;;;;;;;;;;17.60;93.30;;;;;;6067929;23;19901;-81
2023/10/25 00:48:58;;;;;;;;;;;17.60;93.50;;;;;;6067902;23;19977;-81
2023/10/25 00:51:24;;;;;;;;;;;17.50;93.60;;;;;;6066605;23;19909;-81
2023/10/25 00:53:51;;;;;;;;;;;17.40;93.30;;;;;;6067371;23;19976;-79
2023/10/25 00:56:17;;;;;;;;;;;17.60;93.40;;;;;;6067298;23;19965;-81
2023/10/25 00:58:47;;;;;;;;;;;17.50;92.00;;;;;;6068396;23;19902;-74
2023/10/25 01:01:14;;;;;;;;;;;17.40;93.30;;;;;;6067294;23;19901;-74
2023/10/25 01:03:40;;;;;;;;;;;17.40;93.50;;;;;;6067187;23;19989;-74
2023/10/25 01:06:05;;;;;;;;;;;17.40;93.40;;;;;;6076879;23;19913;-74
2023/10/25 01:08:31;;;;;;;;;;;17.40;93.60;;;;;;6067474;23;19901;-74
2023/10/25 01:10:56;;;;;;;;;;;17.40;93.70;;;;;;6041938;23;20211;-74
2023/10/25 01:13:22;;;;;;;;;;;17.50;93.60;;;;;;6067133;23;19992;-73
2023/10/25 01:15:47;;;;;;;;;;;17.40;93.70;;;;;;6067242;23;19951;-73
2023/10/25 01:18:13;;;;;;;;;;;17.40;93.70;;;;;;6067205;23;19908;-73
2023/10/25 01:20:39;;;;;;;;;;;17.50;93.70;;;;;;6067196;23;19901;-73
2023/10/25 01:23:04;;;;;;;;;;;17.60;93.70;;;;;;6068383;23;19908;-72
2023/10/25 01:25:30;;;;;;;;;;;17.40;93.80;;;;;;6069781;23;19924;-80
2023/10/25 01:27:56;;;;;;;;;;;17.40;93.70;;;;;;6078805;23;19908;-80
2023/10/25 01:30:22;;;;;;;;;;;17.50;93.80;;;;;;6069748;23;19921;-80
2023/10/25 01:32:48;;;;;;;;;;;17.50;93.80;;;;;;6069353;23;20326;-80
2023/10/25 01:35:14;;;;;;;;;;;17.30;93.70;;;;;;6069715;23;19916;-80
2023/10/25 01:37:40;;;;;;;;;;;17.40;93.50;;;;;;6069333;23;19957;-73
2023/10/25 01:40:06;;;;;;;;;;;17.40;93.80;;;;;;6069834;23;19933;-72
2023/10/25 01:42:32;;;;;;;;;;;17.40;92.90;;;;;;6069642;23;20369;-73
2023/10/25 01:45:01;;;;;;;;;;;17.50;93.80;;;;;;6069181;23;19932;-73
2023/10/25 01:47:27;;;;;;;;;;;17.40;93.70;;;;;;6069063;23;19902;-73
2023/10/25 01:49:53;;;;;;;;;;;17.40;93.60;;;;;;6069669;23;19985;-73
2023/10/25 01:52:19;;;;;;;;;;;17.40;93.80;;;;;;6069483;23;19952;-72
2023/10/25 01:54:46;;;;;;;;;;;17.40;93.70;;;;;;6069590;23;20317;-80
2023/10/25 01:57:12;;;;;;;;;;;17.40;93.50;;;;;;6069115;23;19901;-80
2023/10/25 01:59:37;;;;;;;;;;;17.40;93.90;;;;;;6068913;23;19902;-79
2023/10/25 02:02:03;;;;;;;;;;;17.40;93.60;;;;;;6068671;23;19921;-80
2023/10/25 02:04:29;;;;;;;;;;;17.30;93.60;;;;;;6068843;23;19957;-79
2023/10/25 02:06:55;;;;;;;;;;;17.50;93.70;;;;;;6069004;23;20273;-80
2023/10/25 02:09:21;;;;;;;;;;;17.40;93.60;;;;;;6068245;23;19965;-79
2023/10/25 02:11:46;;;;;;;;;;;17.50;93.70;;;;;;6069372;23;19923;-79
2023/10/25 02:14:12;;;;;;;;;;;17.50;93.70;;;;;;6068732;23;20229;-80
2023/10/25 02:16:37;;;;;;;;;;;17.50;93.70;;;;;;6069309;23;20174;-80
2023/10/25 02:19:03;;;;;;;;;;;17.40;93.50;;;;;;6068844;23;20308;-80
2023/10/25 02:21:29;;;;;;;;;;;17.60;93.70;;;;;;6068631;23;20410;-79
2023/10/25 02:23:55;;;;;;;;;;;17.70;93.70;;;;;;6069235;23;19917;-73
2023/10/25 02:26:20;;;;;;;;;;;17.50;93.70;;;;;;6068593;23;19902;-73
2023/10/25 02:28:46;;;;;;;;;;;17.50;93.70;;;;;;6069151;23;19901;-73
2023/10/25 02:31:12;;;;;;;;;;;17.50;93.70;;;;;;6068593;23;19902;-73
2023/10/25 02:33:37;;;;;;;;;;;17.60;93.60;;;;;;6068229;23;19909;-73
2023/10/25 02:36:03;;;;;;;;;;;18.00;93.90;;;;;;6068522;23;20314;-73
2023/10/25 02:38:29;;;;;;;;;;;17.50;93.30;;;;;;6069045;23;20258;-73
2023/10/25 02:40:55;;;;;;;;;;;17.50;93.70;;;;;;6068703;23;19948;-73
2023/10/25 02:43:21;;;;;;;;;;;17.40;93.60;;;;;;6068673;23;19921;-73
2023/10/25 02:45:47;;;;;;;;;;;17.40;93.50;;;;;;6068584;23;19901;-73
2023/10/25 02:48:13;;;;;;;;;;;17.40;93.60;;;;;;6068993;23;19906;-73
2023/10/25 02:50:40;;;;;;;;;;;17.50;93.60;;;;;;6069086;23;20499;-79
2023/10/25 02:53:06;;;;;;;;;;;17.40;93.40;;;;;;6068890;23;19910;-79
2023/10/25 02:55:33;;;;;;;;;;;17.40;93.40;;;;;;6068826;23;19973;-79
2023/10/25 02:57:58;;;;;;;;;;;17.40;93.70;;;;;;6068896;23;19902;-79
2023/10/25 03:00:24;;;;;;;;;;;17.40;93.70;;;;;;6068535;23;19902;-79
2023/10/25 03:02:50;;;;;;;;;;;17.30;93.40;;;;;;6068372;23;19941;-73
2023/10/25 03:05:16;;;;;;;;;;;17.40;93.50;;;;;;6068985;23;19909;-73
2023/10/25 03:07:42;;;;;;;;;;;17.30;93.40;;;;;;6068806;23;20225;-73
2023/10/25 03:10:08;;;;;;;;;;;17.60;93.70;;;;;;6068511;23;19902;-72
2023/10/25 03:12:34;;;;;;;;;;;17.40;93.30;;;;;;6068120;23;19937;-73
2023/10/25 03:15:00;;;;;;;;;;;17.50;93.50;;;;;;6068468;23;19902;-73
2023/10/25 03:17:27;;;;;;;;;;;17.40;93.50;;;;;;6068391;23;19948;-73
2023/10/25 03:19:53;;;;;;;;;;;17.40;93.70;;;;;;6068828;23;20306;-73
2023/10/25 03:22:19;;;;;;;;;;;17.30;93.40;;;;;;6068825;23;19908;-73
2023/10/25 03:24:45;;;;;;;;;;;17.60;93.70;;;;;;6068401;23;19957;-73
2023/10/25 03:27:11;;;;;;;;;;;17.40;93.60;;;;;;6068277;23;19901;-73
2023/10/25 03:29:37;;;;;;;;;;;17.30;93.70;;;;;;6068642;23;19901;-73
2023/10/25 03:32:03;;;;;;;;;;;17.40;93.60;;;;;;6068661;23;19902;-79
2023/10/25 03:34:29;;;;;;;;;;;17.40;93.40;;;;;;6068589;23;19906;-79
2023/10/25 03:36:55;;;;;;;;;;;17.40;93.40;;;;;;6068129;23;20048;-79
2023/10/25 03:39:21;;;;;;;;;;;17.40;93.50;;;;;;6068579;23;20033;-78
2023/10/25 03:41:47;;;;;;;;;;;17.40;93.40;;;;;;6068440;23;19902;-78
2023/10/25 03:44:13;;;;;;;;;;;17.40;93.40;;;;;;6068501;23;19902;-81
2023/10/25 03:46:39;;;;;;;;;;;17.40;93.60;;;;;;6067610;23;20258;-81
2023/10/25 03:49:05;;;;;;;;;;;17.40;93.40;;;;;;6069053;23;19908;-81
2023/10/25 03:51:31;;;;;;;;;;;17.40;93.60;;;;;;6068476;23;19988;-81
2023/10/25 03:53:57;;;;;;;;;;;17.40;93.50;;;;;;6067759;23;20405;-80
2023/10/25 03:56:22;;;;;;;;;;;17.40;93.60;;;;;;6067943;23;19981;-80
2023/10/25 03:58:48;;;;;;;;;;;17.50;93.50;;;;;;6067851;23;19902;-74
2023/10/25 04:01:14;;;;;;;;;;;17.30;93.40;;;;;;6067748;23;19906;-80
2023/10/25 04:03:39;;;;;;;;;;;17.30;93.50;;;;;;6067871;23;19920;-80
2023/10/25 04:06:05;;;;;;;;;;;;;;;;;;6067680;23;19901;-80
2023/10/25 04:08:31;;;;;;;;;;;17.60;91.80;;;;;;6067788;23;19980;-80
2023/10/25 04:10:57;;;;;;;;;;;17.40;93.60;;;;;;6067673;23;20338;-80
2023/10/25 04:13:22;;;;;;;;;;;17.40;93.60;;;;;;6068147;23;19916;-80
2023/10/25 04:15:58;;;;;;;;;;;17.60;93.70;;;;;;6068558;23;19901;-74
2023/10/25 04:18:24;;;;;;;;;;;17.40;91.30;;;;;;6067656;23;19905;-74
2023/10/25 04:20:51;;;;;;;;;;;17.40;93.70;;;;;;6067678;23;19910;-74
2023/10/25 04:23:17;;;;;;;;;;;17.90;93.60;;;;;;6067667;23;20048;-75
2023/10/25 04:25:42;;;;;;;;;;;17.30;93.70;;;;;;6067635;23;19990;-75
2023/10/25 04:28:08;;;;;;;;;;;17.40;93.60;;;;;;6067606;23;20326;-74
2023/10/25 04:30:34;;;;;;;;;;;17.40;93.50;;;;;;6067643;23;19913;-74
2023/10/25 04:32:59;;;;;;;;;;;17.40;93.60;;;;;;6067715;23;19905;-74
2023/10/25 04:35:25;;;;;;;;;;;17.30;93.40;;;;;;6067456;23;19957;-74
2023/10/25 04:37:51;;;;;;;;;;;17.30;93.50;;;;;;6068104;23;19929;-74
2023/10/25 04:40:16;;;;;;;;;;;17.40;93.70;;;;;;6067390;23;19908;-73
2023/10/25 04:42:43;;;;;;;;;;;17.70;93.70;;;;;;6067462;23;20000;-74
2023/10/25 04:45:08;;;;;;;;;;;17.20;93.50;;;;;;6067358;23;19933;-74
2023/10/25 04:47:34;;;;;;;;;;;17.30;92.80;;;;;;6067514;23;19934;-74
2023/10/25 04:50:03;;;;;;;;;;;17.20;93.60;;;;;;6067433;23;19909;-74
2023/10/25 04:52:29;;;;;;;;;;;17.30;93.70;;;;;;6067333;23;19916;-74
2023/10/25 04:54:54;;;;;;;;;;;17.30;93.70;;;;;;6067375;23;19984;-74
2023/10/25 04:57:20;;;;;;;;;;;17.40;93.80;;;;;;6067087;23;19964;-74
2023/10/25 04:59:45;;;;;;;;;;;17.30;93.80;;;;;;6067366;23;19901;-74
2023/10/25 05:02:11;;;;;;;;;;;17.30;93.60;;;;;;6067312;23;19921;-74
2023/10/25 05:04:37;;;;;;;;;;;17.20;93.70;;;;;;6067904;23;19925;-73
2023/10/25 05:07:03;;;;;;;;;;;18.00;94.00;;;;;;6067235;23;20109;-74
2023/10/25 05:09:28;;;;;;;;;;;17.30;93.20;;;;;;6067222;23;20249;-74
2023/10/25 05:11:56;;;;;;;;;;;17.20;93.70;;;;;;6067511;23;19936;-74
2023/10/25 05:14:21;;;;;;;;;;;17.40;93.80;;;;;;6067779;23;19941;-74
2023/10/25 05:16:47;;;;;;;;;;;17.30;93.60;;;;;;6067710;23;20342;-73
2023/10/25 05:19:13;;;;;;;;;;;17.30;93.50;;;;;;6067881;23;20127;-74
2023/10/25 05:21:41;;;;;;;;;;;17.30;93.70;;;;;;6067841;23;19909;-73
2023/10/25 05:24:08;;;;;;;;;;;17.40;93.90;;;;;;6067569;23;20001;-77
2023/10/25 05:26:34;;;;;;;;;;;17.30;93.20;;;;;;6072697;23;19905;-73
2023/10/25 05:28:59;;;;;;;;;;;17.30;93.70;;;;;;6067847;23;19902;-73
2023/10/25 05:31:26;;;;;;;;;;;17.30;93.60;;;;;;6067439;23;20269;-73
2023/10/25 05:33:51;;;;;;;;;;;17.30;93.70;;;;;;6066902;23;19949;-73
2023/10/25 05:36:17;;;;;;;;;;;17.30;93.70;;;;;;6066942;23;19902;-74
2023/10/25 05:38:43;;;;;;;;;;;17.20;93.80;;;;;;6067291;23;20468;-72
2023/10/25 05:41:10;;;;;;;;;;;17.40;93.90;;;;;;6067224;23;20212;-73
2023/10/25 05:43:38;;;;;;;;;;;17.40;94.20;;;;;;6066900;23;19901;-73
2023/10/25 05:46:03;;;;;;;;;;;17.40;93.90;;;;;;6067258;23;19909;-73
2023/10/25 05:48:29;;;;;;;;;;;17.40;94.00;;;;;;6066859;23;19985;-73
2023/10/25 05:50:55;;;;;;;;;;;17.40;93.50;;;;;;6066819;23;19905;-73
2023/10/25 05:53:21;;;;;;;;;;;17.30;93.90;;;;;;6066715;23;19917;-73
2023/10/25 05:55:46;;;;;;;;;;;17.40;93.60;;;;;;6067171;23;20262;-75
2023/10/25 05:58:12;;;;;;;;;;;17.50;93.90;;;;;;6066862;23;20000;-73
2023/10/25 06:00:39;;;;;;;;;;;17.40;93.60;;;;;;6067461;23;19901;-81
2023/10/25 06:03:04;;;;;;;;;;;17.40;93.90;;;;;;6066750;23;19917;-80
2023/10/25 06:05:33;;;;;;;;;;;17.30;94.00;;;;;;6076541;23;19908;-81
2023/10/25 06:07:59;;;;;;;;;;;17.60;94.20;;;;;;6066979;23;19902;-80
2023/10/25 06:10:25;;;;;;;;;;;17.40;94.00;;;;;;6068426;23;19902;-81
2023/10/25 06:12:51;;;;;;;;;;;17.50;93.70;;;;;;6069377;23;19917;-73
2023/10/25 06:15:17;;;;;;;;;;;17.40;93.90;;;;;;6069341;23;19905;-74
2023/10/25 06:17:43;;;;;;;;;;;18.00;94.20;;;;;;6068864;23;20310;-73
2023/10/25 06:20:10;;;;;;;;;;;17.50;94.00;;;;;;6068969;23;19965;-74
2023/10/25 06:22:36;;;;;;;;;;;17.40;93.90;;;;;;6068784;23;19901;-74
2023/10/25 06:25:04;;;;;;;;;;;17.50;94.10;;;;;;6069161;23;19902;-74
2023/10/25 06:27:30;;;;;;;;;;;17.50;93.90;;;;;;6068559;23;20388;-74
2023/10/25 06:29:56;;;;;;;;;;;17.40;93.90;;;;;;6069240;23;19928;-74
2023/10/25 06:32:22;;;;;;;;;;;17.50;94.20;;;;;;6068630;23;19901;-75
2023/10/25 06:34:48;;;;;;;;;;;17.30;93.90;;;;;;6076088;23;19901;-73
2023/10/25 06:37:13;;;;;;;;;;;17.40;93.90;;;;;;6043339;23;19905;-78
2023/10/25 06:39:39;;;;;;;;;;;17.40;93.90;;;;;;6068567;23;20010;-81
2023/10/25 06:42:05;;;;;;;;;;;17.40;94.00;;;;;;6069186;23;20350;-76
2023/10/25 06:44:31;;;;;;;;;;;17.40;94.00;;;;;;6068305;23;19908;-83
2023/10/25 06:46:57;;;;;;;;;;;17.40;93.90;;;;;;6068561;23;19902;-77
2023/10/25 06:49:22;;;;;;;;;;;17.40;93.60;;;;;;6068575;23;19929;-77
2023/10/25 06:51:48;;;;;;;;;;;17.50;94.00;;;;;;6068292;23;19901;-78
2023/10/25 06:54:14;;;;;;;;;;;17.50;93.60;;;;;;6068349;23;20330;-83
2023/10/25 06:56:39;;;;;;;;;;;17.40;94.00;;;;;;6068385;23;20321;-84
2023/10/25 06:59:06;;;;;;;;;;;17.50;93.90;;;;;;6068984;23;19901;-84
2023/10/25 07:01:34;;;;;;;;;;;17.50;94.00;;;;;;6068099;23;19905;-81
2023/10/25 07:04:02;;;;;;;;;;;17.50;94.00;;;;;;6068605;23;20325;-84
2023/10/25 07:06:27;;;;;;;;;;;17.50;94.20;;;;;;6068437;23;19912;-74
2023/10/25 07:08:53;;;;;;;;;;;17.50;93.70;;;;;;6069165;23;19976;-80
2023/10/25 07:11:18;;;;;;;;;;;17.50;93.80;;;;;;6068373;23;19902;-85
2023/10/25 07:13:44;;;;;;;;;;;17.60;94.20;;;;;;6068107;23;19909;-85
2023/10/25 07:16:10;;;;;;;;;;;17.50;94.20;;;;;;6068766;23;19902;-87
2023/10/25 07:18:36;;;;;;;;;;;17.40;94.00;;;;;;6068174;23;19908;-82
2023/10/25 07:21:02;;;;;;;;;;;17.40;94.10;;;;;;6068456;23;19969;-87
2023/10/25 07:23:27;;;;;;;;;;;17.50;94.00;;;;;;6069119;23;19902;-74
2023/10/25 07:25:53;;;;;;;;;;;17.50;94.10;;;;;;6067885;23;19908;-73
2023/10/25 07:28:21;;;;;;;;;;;17.80;94.30;;;;;;6068614;23;19902;-73
2023/10/25 07:30:46;;;;;;;;;;;17.50;94.10;;;;;;6068412;23;19905;-75
2023/10/25 07:33:13;;;;;;;;;;;17.50;94.10;;;;;;6067793;23;19910;-74
2023/10/25 07:35:38;;;;;;;;;;;17.60;94.20;;;;;;6068065;23;19901;-87
2023/10/25 07:38:04;;;;;;;;;;;17.60;94.30;;;;;;6068689;23;19915;-86
2023/10/25 07:40:29;;;;;;;;;;;17.60;94.00;;;;;;6068657;23;20207;-86
2023/10/25 07:42:54;;;;;;;;;;;17.50;94.20;;;;;;6068548;23;19901;-86
2023/10/25 07:45:20;;;;;;;;;;;17.50;94.10;;;;;;6068607;23;19908;-87
2023/10/25 07:47:45;;;;;;;;;;;17.50;94.20;;;;;;6068716;23;19909;-86
2023/10/25 07:50:13;;;;;;;;;;;17.60;94.20;;;;;;6068635;23;19902;-86
2023/10/25 07:52:38;;;;;;;;;;;17.60;94.10;;;;;;6068953;23;19992;-86
2023/10/25 07:55:04;;;;;;;;;;;17.60;94.20;;;;;;6068510;23;19905;-86
2023/10/25 07:57:30;;;;;;;;;;;17.70;93.90;;;;;;6068726;23;20389;-86
2023/10/25 07:59:55;;;;;;;;;;;17.50;93.90;;;;;;6068519;23;19933;-82
2023/10/25 08:02:21;;;;;;;;;;;17.50;94.00;;;;;;6067798;23;19972;-86
2023/10/25 08:04:47;;;;;;;;;;;17.60;94.10;;;;;;6068228;23;19948;-84
2023/10/25 08:07:12;;;;;;;;;;;17.60;94.20;;;;;;6068947;23;19901;-79
2023/10/25 08:09:42;;;;;;;;;;;17.50;94.00;;;;;;6068272;23;20266;-81
2023/10/25 08:12:08;;;;;;;;;;;17.70;94.20;;;;;;6067635;23;20318;-71
2023/10/25 08:14:34;;;;;;;;;;;17.60;93.50;;;;;;6067648;23;19913;-72
2023/10/25 08:17:00;;;;;;;;;;;17.60;94.10;;;;;;6067852;23;19947;-78
2023/10/25 08:19:25;;;;;;;;;;;17.50;93.90;;;;;;6072549;23;19959;-72
2023/10/25 08:21:51;;;;;;;;;;;17.70;94.20;;;;;;6067567;23;19980;-72
2023/10/25 08:24:16;;;;;;;;;;;17.60;94.10;;;;;;6067510;23;19902;-71
2023/10/25 08:26:42;;;;;;;;;;;17.60;94.20;;;;;;6067594;23;19933;-71
2023/10/25 08:29:08;;;;;;;;;;;17.80;94.00;;;;;;6068079;23;19972;-70
2023/10/25 08:31:33;;;;;;;;;;;17.60;93.90;;;;;;6067237;23;19905;-72
2023/10/25 08:33:59;;;;;;;;;;;17.70;94.10;;;;;;6041708;23;20346;-73
2023/10/25 08:36:25;;;;;;;;;;;17.50;94.00;;;;;;6067291;23;19933;-71
2023/10/25 08:38:50;;;;;;;;;;;17.60;94.00;;;;;;6067771;23;19901;-72
2023/10/25 08:41:18;;;;;;;;;;;17.70;94.10;;;;;;6067732;23;19917;-72
2023/10/25 08:43:43;;;;;;;;;;;17.70;94.10;;;;;;6067422;23;19907;-71
2023/10/25 08:46:09;;;;;;;;;;;17.60;94.00;;;;;;6067287;23;19984;-72
2023/10/25 08:48:34;;;;;;;;;;;17.70;94.10;;;;;;6067476;23;19901;-79
2023/10/25 08:51:00;;;;;;;;;;;17.70;94.20;;;;;;6068037;23;20357;-71
2023/10/25 08:53:26;;;;;;;;;;;17.70;94.00;;;;;;6067460;23;19942;-72
2023/10/25 08:55:53;;;;;;;;;;;17.60;94.20;;;;;;6067525;23;19929;-72
2023/10/25 08:58:19;;;;;;;;;;;17.60;94.40;;;;;;6067461;23;19953;-72
2023/10/25 09:00:44;;;;;;;;;;;17.60;94.60;;;;;;6067415;23;19905;-72
2023/10/25 09:03:28;;;;;;;;;;;17.60;94.10;;;;;;6067063;23;19913;-72
2023/10/25 09:05:54;;;;;;;;;;;17.60;91.90;;;;;;6067994;23;20304;-72
2023/10/25 09:08:19;;;;;;;;;;;17.90;94.30;;;;;;6067129;23;19905;-72
2023/10/25 09:10:53;;;;;;;;;;;17.70;94.20;;;;;;6067298;23;20001;-72
2023/10/25 09:13:18;;;;;;;;;;;17.70;94.30;;;;;;6067025;23;19917;-72
2023/10/25 09:15:44;;;;;;;;;;;17.60;94.30;;;;;;6067259;23;19905;-72
2023/10/25 09:18:10;;;;;;;;;;;17.60;94.30;;;;;;6067196;23;20377;-72
2023/10/25 09:20:35;;;;;;;;;;;17.70;94.50;;;;;;6067143;23;19905;-71
2023/10/25 09:23:10;;;;;;;;;;;17.70;94.20;;;;;;6067116;23;19902;-70
2023/10/25 09:25:37;;;;;;;;;;;17.60;94.20;;;;;;6067693;23;19901;-72
2023/10/25 09:28:03;;;;;;;;;;;17.70;94.30;;;;;;6067416;23;19976;-72
2023/10/25 09:30:29;;;;;;;;;;;17.70;94.40;;;;;;6067432;23;19908;-71
2023/10/25 09:32:54;;;;;;;;;;;17.70;94.50;;;;;;6067304;23;19953;-71
2023/10/25 09:35:20;;;;;;;;;;;17.70;94.50;;;;;;6067155;23;19902;-71
2023/10/25 09:37:46;;;;;;;;;;;17.70;94.40;;;;;;6067213;23;19901;-76
2023/10/25 09:40:13;;;;;;;;;;;17.90;94.50;;;;;;6066962;23;19973;-78
2023/10/25 09:42:44;;;;;;;;;;;17.70;93.50;;;;;;6067041;23;19901;-77
2023/10/25 09:45:12;;;;;;;;;;;17.70;94.60;;;;;;6078868;23;20262;-77
2023/10/25 09:47:40;;;;;;;;;;;17.80;94.40;;;;;;6078362;23;20265;-77
2023/10/25 09:50:09;;;;;;;;;;;17.80;94.50;;;;;;6078444;23;20215;-76
2023/10/25 09:52:35;;;;;;;;;;;17.70;94.30;;;;;;6069395;23;19913;-79
2023/10/25 09:55:03;;;;;;;;;;;17.80;94.40;;;;;;6069353;23;20025;-76
2023/10/25 09:57:30;;;;;;;;;;;17.80;94.40;;;;;;6069120;23;19929;-76
2023/10/25 09:59:56;;;;;;;;;;;17.80;94.50;;;;;;6069271;23;19901;-79
2023/10/25 10:02:24;;;;;;;;;;;17.70;94.20;;;;;;6068772;23;19913;-78
2023/10/25 10:04:55;;;;;;;;;;;17.80;92.20;;;;;;6069367;23;19982;-77
2023/10/25 10:07:30;;;;;;;;;;;17.80;92.20;;;;;;6068865;23;19956;-79
2023/10/25 10:10:04;;;;;;;;;;;17.80;92.20;;;;;;6068869;23;19902;-78
2023/10/25 10:12:29;;;;;;;;;;;17.80;92.20;;;;;;6068731;23;19936;-77
2023/10/25 10:14:55;;;;;;;;;;;17.80;94.40;;;;;;6068707;23;19901;-75
2023/10/25 10:17:21;;;;;;;;;;;17.80;94.40;;;;;;6068680;23;19902;-77
2023/10/25 10:19:47;;;;;;;;;;;17.80;94.40;;;;;;6068619;23;19901;-76
2023/10/25 10:22:13;;;;;;;;;;;17.80;94.60;;;;;;6069300;23;19981;-76
2023/10/25 10:24:43;;;;;;;;;;;17.80;94.40;;;;;;6069124;23;19902;-76
2023/10/25 10:27:18;;;;;;;;;;;17.90;92.30;;;;;;6068619;23;19949;-76
2023/10/25 10:29:45;;;;;;;;;;;17.80;91.90;;;;;;6068521;23;19928;-76
2023/10/25 10:32:11;;;;;;;;;;;17.80;94.50;;;;;;6069101;23;20308;-77
2023/10/25 10:34:48;;;;;;;;;;;17.90;94.50;;;;;;6068966;23;19910;-78
2023/10/25 10:37:16;;;;;;;;;;;17.90;92.20;;;;;;6068915;23;19912;-77
2023/10/25 10:39:57;;;;;;;;;;;17.80;94.50;;;;;;6068985;23;19929;-82
2023/10/25 10:42:28;;;;;;;;;;;17.90;92.10;;;;;;6069216;23;19902;-79
2023/10/25 10:44:55;;;;;;;;;;;17.90;92.20;;;;;;6069082;23;19906;-79
2023/10/25 10:47:26;;;;;;;;;;;17.90;94.50;;;;;;6068667;23;20314;-79
2023/10/25 10:49:56;;;;;;;;;;;17.70;94.40;;;;;;6078364;23;20300;-79
2023/10/25 10:52:23;;;;;;;;;;;18.00;94.50;;;;;;6068632;23;19930;-80
2023/10/25 10:54:49;;;;;;;;;;;17.90;94.40;;;;;;6068549;23;19902;-79
2023/10/25 10:57:16;;;;;;;;;;;17.90;94.30;;;;;;6068609;23;20224;-79
2023/10/25 10:59:45;;;;;;;;;;;17.80;94.30;;;;;;6068546;23;19902;-80
2023/10/25 11:02:12;;;;;;;;;;;17.90;94.20;;;;;;6068449;23;19917;-78
2023/10/25 11:04:44;;;;;;;;;;;17.90;94.50;;;;;;6068738;23;20237;-80
2023/10/25 11:07:10;;;;;;;;;;;18.00;92.10;;;;;;6068836;23;19902;-80
2023/10/25 11:09:36;;;;;;;;;;;18.00;94.40;;;;;;6068407;23;19924;-80
2023/10/25 11:12:03;;;;;;;;;;;18.20;94.30;;;;;;6068328;23;19902;-80
2023/10/25 11:14:38;;;;;;;;;;;17.90;94.50;;;;;;6068688;23;19910;-80
2023/10/25 11:17:04;;;;;;;;;;;17.90;94.00;;;;;;6078202;23;19912;-80
2023/10/25 11:19:31;;;;;;;;;;;17.90;94.30;;;;;;6077783;23;19902;-80
2023/10/25 11:21:56;;;;;;;;;;;18.00;94.40;;;;;;6077794;23;19949;-79
2023/10/25 11:24:22;;;;;;;;;;;18.00;93.90;;;;;;6077740;23;20231;-80
2023/10/25 11:26:47;;;;;;;;;;;18.00;94.30;;;;;;6077717;23;19976;-79
2023/10/25 11:29:13;;;;;;;;;;;18.10;94.40;;;;;;6077743;23;19902;-80
2023/10/25 11:31:40;;;;;;;;;;;17.90;94.20;;;;;;6077642;23;19901;-80
2023/10/25 11:34:06;;;;;;;;;;;17.90;94.40;;;;;;6077673;23;19909;-80
2023/10/25 11:36:31;;;;;;;;;;;17.90;94.20;;;;;;6077644;23;19924;-71
2023/10/25 11:39:06;;;;;;;;;;;17.90;94.30;;;;;;6077662;23;19967;-71
2023/10/25 11:41:32;;;;;;;;;;;17.90;92.00;;;;;;6077507;23;19901;-71
2023/10/25 11:43:59;;;;;;;;;;;17.90;94.20;;;;;;6077547;23;19909;-71
2023/10/25 11:46:28;;;;;;;;;;;18.00;94.30;;;;;;6077469;23;19905;-71
2023/10/25 11:48:58;;;;;;;;;;;18.00;94.40;;;;;;6067689;23;19912;-71
2023/10/25 11:51:24;;;;;;;;;;;18.00;94.50;;;;;;6067897;23;20241;-71
2023/10/25 11:53:50;;;;;;;;;;;18.30;94.50;;;;;;6068334;23;19909;-71
2023/10/25 11:56:15;;;;;;;;;;;18.00;94.40;;;;;;6067867;23;19901;-71
2023/10/25 11:58:41;;;;;;;;;;;18.00;94.30;;;;;;6067829;23;20337;-71
2023/10/25 12:01:07;;;;;;;;;;;17.90;94.20;;;;;;6067726;23;19932;-71
2023/10/25 12:03:32;;;;;;;;;;;20.10;94.70;;;;;;6067603;23;19961;-71
2023/10/25 12:05:58;;;;;;;;;;;18.10;94.50;;;;;;6067701;23;19932;-72
2023/10/25 12:08:23;;;;;;;;;;;18.10;94.30;;;;;;6067459;23;19909;-72
2023/10/25 12:10:49;;;;;;;;;;;17.90;94.40;;;;;;6067594;23;19988;-70
2023/10/25 12:13:14;;;;;;;;;;;17.90;94.30;;;;;;6067727;23;19921;-71
2023/10/25 12:15:40;;;;;;;;;;;18.00;94.40;;;;;;6067971;23;19973;-70
2023/10/25 12:18:05;;;;;;;;;;;18.00;94.30;;;;;;6067679;23;19988;-72
2023/10/25 12:20:32;;;;;;;;;;;18.10;94.40;;;;;;6067705;23;20314;-72
2023/10/25 12:22:58;;;;;;;;;;;18.00;94.40;;;;;;6068517;23;19902;-72
2023/10/25 12:25:24;;;;;;;;;;;17.90;94.30;;;;;;6067591;23;19944;-72
2023/10/25 12:27:49;;;;;;;;;;;18.00;94.40;;;;;;6068037;23;19909;-75
2023/10/25 12:30:15;;;;;;;;;;;18.00;94.30;;;;;;6067417;23;20233;-72
2023/10/25 12:32:40;;;;;;;;;;;18.20;94.40;;;;;;6067445;23;19906;-72
2023/10/25 12:35:06;;;;;;;;;;;18.00;94.30;;;;;;6067345;23;19902;-76
2023/10/25 12:37:32;;;;;;;;;;;18.00;93.30;;;;;;6067242;23;19972;-77
2023/10/25 12:39:57;;;;;;;;;;;18.00;94.50;;;;;;6067210;23;19902;-77
2023/10/25 12:42:23;;;;;;;;;;;18.00;94.30;;;;;;6067270;23;19902;-76
2023/10/25 12:44:48;;;;;;;;;;;18.00;94.50;;;;;;6067348;23;20266;-78
2023/10/25 12:47:14;;;;;;;;;;;18.00;94.40;;;;;;6067336;23;20289;-76
2023/10/25 12:49:39;;;;;;;;;;;18.00;94.40;;;;;;6067343;23;19908;-78
2023/10/25 12:52:07;;;;;;;;;;;18.00;94.30;;;;;;6068482;23;20361;-77
2023/10/25 12:54:34;;;;;;;;;;;18.00;94.40;;;;;;6067201;23;19979;-76
2023/10/25 12:56:59;;;;;;;;;;;18.00;93.80;;;;;;6067729;23;20233;-80
2023/10/25 12:59:25;;;;;;;;;;;19.50;94.70;;;;;;6067402;23;19901;-76
2023/10/25 13:01:51;;;;;;;;;;;16.70;93.80;;;;;;6067600;23;19906;-76
2023/10/25 13:04:17;;;;;;;;;;;18.00;94.30;;;;;;6067804;23;20235;-74
2023/10/25 13:06:42;;;;;;;;;;;17.90;94.20;;;;;;6067221;23;19909;-75
2023/10/25 13:09:10;;;;;;;;;;;18.00;94.30;;;;;;6067095;23;19981;-75
2023/10/25 13:11:36;;;;;;;;;;;17.90;94.10;;;;;;6067155;23;19902;-76
2023/10/25 13:14:03;;;;;;;;;;;18.00;94.20;;;;;;6067670;23;19917;-76
2023/10/25 13:16:29;;;;;;;;;;;18.00;92.70;;;;;;6042166;23;19913;-76
2023/10/25 13:18:54;;;;;;;;;;;18.00;94.40;;;;;;6069045;23;19949;-78
2023/10/25 13:21:20;;;;;;;;;;;18.00;94.30;;;;;;6070369;23;19965;-72
2023/10/25 13:23:45;;;;;;;;;;;17.90;94.30;;;;;;6070255;23;19909;-72
2023/10/25 13:26:11;;;;;;;;;;;18.00;94.20;;;;;;6070212;23;19909;-71
2023/10/25 13:28:37;;;;;;;;;;;18.00;94.40;;;;;;6070262;23;20322;-71
2023/10/25 13:31:03;;;;;;;;;;;18.00;94.20;;;;;;6070379;23;19980;-70
2023/10/25 13:33:28;;;;;;;;;;;18.00;94.30;;;;;;6070620;23;19910;-70
2023/10/25 13:35:54;;;;;;;;;;;18.10;94.20;;;;;;6070314;23;19940;-70
2023/10/25 13:38:19;;;;;;;;;;;18.00;94.30;;;;;;6070231;23;19901;-76
2023/10/25 13:40:46;;;;;;;;;;;18.00;94.40;;;;;;6070425;23;19901;-70
2023/10/25 13:43:13;;;;;;;;;;;18.00;94.30;;;;;;6070254;23;19949;-70
2023/10/25 13:45:38;;;;;;;;;;;18.00;94.50;;;;;;6070866;23;19909;-71
2023/10/25 13:48:04;;;;;;;;;;;18.00;94.30;;;;;;6070761;23;19910;-73
2023/10/25 13:50:30;;;;;;;;;;;18.00;93.80;;;;;;6070243;23;19920;-72
2023/10/25 13:52:55;;;;;;;;;;;18.00;94.20;;;;;;6070184;23;19913;-72
2023/10/25 13:55:21;;;;;;;;;;;18.00;94.40;;;;;;6070241;23;19906;-72
2023/10/25 13:57:46;;;;;;;;;;;18.00;94.20;;;;;;6070390;23;19910;-69
2023/10/25 14:00:12;;;;;;;;;;;18.00;94.50;;;;;;6070231;23;19902;-69
2023/10/25 14:02:40;;;;;;;;;;;17.90;94.10;;;;;;6070375;23;19913;-71
2023/10/25 14:05:05;;;;;;;;;;;18.10;94.30;;;;;;6045312;23;19901;-71
2023/10/25 14:07:31;;;;;;;;;;;18.00;93.80;;;;;;6070050;23;19901;-70
2023/10/25 14:09:57;;;;;;;;;;;18.00;94.10;;;;;;6070250;23;19929;-71
2023/10/25 14:12:22;;;;;;;;;;;18.00;94.10;;;;;;6070162;23;20033;-70